Andersonville, GA (31711)

8:06 PM EDT on July 31, 2014 (GMT -0400)
Souther (KACJ) Elev 469 ft | 32.11 °N, 84.19 °W | Change Station

Current weather conditions updated 11 minutes ago

Mostly Cloudy
Mostly Cloudy
84 °F
Feels Like 87 °F
N
5
Wind Variable Wind from North

Tomorrow is forecast to be nearly the same temperature as today. A few morning showers.

Today
High -- | Low -- °F
--% Chance of Precip.
Yesterday
High -- | Low -- °F
Precip. -- in
6:50 AM 8:34 PM
Waxing Crescent, 22% visible
Pressure 30.00 in
Visibility 10.0 miles
Clouds Scattered Clouds 4700 ft
Mostly Cloudy 5500 ft
Mostly Cloudy 7500 ft
Heat Index 87 °F
Dew Point 68 °F
Humidity 58%
Rainfall 0.00 in
Snow Depth Not available.
UV 0 out of 12
Pollen 5.00 out of 12
Air Quality Not available.
Flu Activity Not available.
METAR KACJ 312355Z AUTO 01004KT 10SM SCT047 BKN055 BKN075 29/20 A3000 RMK AO2

More Conditions Fewer Conditions

Pressure 30.00 in
Visibility 10.0 miles
Clouds Scattered Clouds 4700 ft
Mostly Cloudy 5500 ft
Mostly Cloudy 7500 ft
Heat Index 87 °F
Dew Point 68 °F
Humidity 58%
Rainfall 0.00 in
Snow Depth Not available.
UV 0 out of 12
Pollen 5.00 out of 12
Air Quality Not available.
Flu Activity Not available.
METAR KACJ 312355Z AUTO 01004KT 10SM SCT047 BKN055 BKN075 29/20 A3000 RMK AO2

More Conditions Fewer Conditions

10-Day Weather Forecast

Almanac

Astronomy

Jul. 31, 2014 Rise Set
Actual Time 6:50 AM EDT 8:34 PM EDT
Civil Twilight 6:24 AM EDT 9:01 PM EDT
Nautical Twilight 5:51 AM EDT 9:33 PM EDT
Astronomical Twilight 5:17 AM EDT 10:07 PM EDT
Moon 10:59 AM EDT (7/31) 11:06 PM EDT (7/31)
Length of Visible Light 14h 37m
Length of Day
13h 43m
Tomorrow will be 1m 28s shorter.
Waxing Crescent, 22% of the Moon is Illuminated
Today
Waxing Crescent
Aug 3
First Quarter
Aug 10
Full
Aug 17
Last Quarter
Aug 25
New

Today's Extremes

State Highs State Lows

Community

WunderPhotos

Upload Photos

1,739,471 photos uploaded!

Nearby

Snow Depth

Station Depth Elevation
No new snow has been reported.

Earthquake Activity

City Distance Mag. Time & Date
No recent earthquake activity has been reported nearby.
Minimum magnitude displayed is 2.5.

Coastal Water Temperatures

Place Temperature
No Stations Reporting

Nearby Weather Stations

Station Location Temp. Heat Index Dew Point Humidity Wind Precip. Elev Updated Type
RAWS AMERICUS/PLAINS GA, Americus, GA 88 °F 88 °F 62 °F 42% WNW  at  3 mph 0.00 in / hr 456 ft 7:03 PM EDT MADIS
Wildwood Circle, Americus, GA 82.6 °F 86 °F 68 °F 62% North  at  0.0 mph 0.00 in / hr 402 ft 8:00 PM EDT Normal
Cobb, Cobb, GA 87.5 °F 91 °F 67 °F 51% ENE  at  0.0 mph 0.00 in / hr 285 ft 8:00 PM EDT Normal
Potterville, Reynolds, GA 83.7 °F 90 °F 73 °F 69% NE  at  0.0 mph 0.00 in / hr 420 ft 8:04 PM EDT Normal

Show More Stations Show Fewer Stations